Time;durP1;ratioP1;P1;durP2;ratioP2;P2;SDS_P1;SDS_P2;PMS_P1;PMS_P2;Temp;Humidity;BMP_temperature;BMP_pressure;BME280_temperature;BME280_humidity;BME280_pressure;Samples;Min_cycle;Max_cycle;Signal;HPM_P1;HPM_P2
2023/05/12 00:02:16;;;;;;;4.90;4.17;;;;;;;;;;5120720;28;20444;-62
2023/05/12 00:04:43;;;;;;;4.00;3.60;;;;;;;;;;5119213;28;20476;-60
2023/05/12 00:07:11;;;;;;;9.17;4.60;;;17.10;91.00;;;;;;5119600;28;20479;-60
2023/05/12 00:09:40;;;;;;;4.57;3.33;;;;;;;;;;5119924;28;20472;-60
2023/05/12 00:12:07;;;;;;;4.20;3.80;;;;;;;;;;5119033;28;20516;-60
2023/05/12 00:14:35;;;;;;;5.83;3.80;;;17.10;91.50;;;;;;5120007;28;20475;-57
2023/05/12 00:17:03;;;;;;;6.10;3.63;;;17.00;91.70;;;;;;5120055;28;21210;-60
2023/05/12 00:19:30;;;;;;;4.10;3.30;;;;;;;;;;5119099;28;20936;-61
2023/05/12 00:21:57;;;;;;;5.50;4.10;;;;;;;;;;5118876;28;20496;-61
2023/05/12 00:24:25;;;;;;;4.90;4.40;;;16.90;91.70;;;;;;5121224;28;20556;-60
2023/05/12 00:26:53;;;;;;;13.20;3.80;;;;;;;;;;5121055;28;20440;-60
2023/05/12 00:29:20;;;;;;;6.43;4.00;;;;;;;;;;5122554;28;20470;-61
2023/05/12 00:31:47;;;;;;;7.27;4.43;;;;;;;;;;5121323;28;20477;-59
2023/05/12 00:34:14;;;;;;;5.97;4.87;;;;;;;;;;5120371;28;20490;-60
2023/05/12 00:36:41;;;;;;;5.50;3.80;;;;;;;;;;5120725;28;20551;-61
2023/05/12 00:39:08;;;;;;;5.33;3.90;;;;;;;;;;5120776;28;20455;-55
2023/05/12 00:41:37;;;;;;;7.70;3.93;;;16.70;93.30;;;;;;5120434;28;20511;-55
2023/05/12 00:44:04;;;;;;;5.00;4.50;;;;;;;;;;5113792;28;20540;-56
2023/05/12 00:46:31;;;;;;;9.10;3.63;;;;;;;;;;5099578;28;20528;-56
2023/05/12 00:48:59;;;;;;;4.63;3.10;;;;;;;;;;5099692;28;20532;-56
2023/05/12 00:51:26;;;;;;;5.23;3.80;;;;;;;;;;5100238;28;20497;-54
2023/05/12 00:53:54;;;;;;;7.87;4.90;;;;;;;;;;5100380;28;20481;-56
2023/05/12 00:56:21;;;;;;;6.03;3.50;;;;;;;;;;5099825;28;20472;-55
2023/05/12 00:58:49;;;;;;;4.57;3.80;;;16.20;94.30;;;;;;5116643;28;20448;-56
2023/05/12 01:01:17;;;;;;;5.83;4.17;;;;;;;;;;5120427;28;20539;-52
2023/05/12 01:03:44;;;;;;;5.23;4.13;;;;;;;;;;5120306;28;20468;-53
2023/05/12 01:06:16;;;;;;;5.80;3.90;;;16.10;94.50;;;;;;5120460;28;20440;-57
2023/05/12 01:08:43;;;;;;;4.40;3.40;;;;;;;;;;5120591;28;20486;-52
2023/05/12 01:11:11;;;;;;;8.50;4.20;;;;;;;;;;5120986;28;20545;-57
2023/05/12 01:13:39;;;;;;;5.00;4.17;;;;;;;;;;5120126;28;20763;-53
2023/05/12 01:16:10;;;;;;;4.07;3.37;;;16.10;94.90;;;;;;5120679;28;20472;-57
2023/05/12 01:18:38;;;;;;;5.57;4.00;;;16.40;95.00;;;;;;5120529;28;20488;-52
2023/05/12 01:21:05;;;;;;;5.27;4.00;;;16.10;93.90;;;;;;5120269;28;20447;-55
2023/05/12 01:23:37;;;;;;;4.80;4.17;;;16.30;95.20;;;;;;5119876;28;20559;-54
2023/05/12 01:26:07;;;;;;;5.47;3.47;;;16.10;95.20;;;;;;5120016;28;20437;-55
2023/05/12 01:28:40;;;;;;;5.80;4.37;;;16.00;95.20;;;;;;5120538;28;20450;-56
2023/05/12 01:31:09;;;;;;;6.33;4.00;;;16.10;95.40;;;;;;5118252;27;20475;-56
2023/05/12 01:33:36;;;;;;;6.10;3.90;;;;;;;;;;5119480;28;20487;-57
2023/05/12 01:36:03;;;;;;;4.53;3.60;;;;;;;;;;5116422;28;20460;-57
2023/05/12 01:38:30;;;;;;;8.10;4.00;;;;;;;;;;5119125;28;20504;-55
2023/05/12 01:40:57;;;;;;;8.53;4.23;;;;;;;;;;5119380;28;20444;-55
2023/05/12 01:43:26;;;;;;;4.80;3.77;;;15.90;95.60;;;;;;5119093;28;20909;-54
2023/05/12 01:45:53;;;;;;;6.47;4.07;;;;;;;;;;5119783;28;20476;-55
2023/05/12 01:48:20;;;;;;;5.47;3.77;;;;;;;;;;5127522;28;20513;-54
2023/05/12 01:50:47;;;;;;;6.87;3.80;;;;;;;;;;5124251;28;20553;-56
2023/05/12 01:53:14;;;;;;;5.03;3.57;;;;;;;;;;5119882;28;20448;-56
2023/05/12 01:55:41;;;;;;;6.17;3.77;;;;;;;;;;5117159;28;20437;-54
2023/05/12 01:58:08;;;;;;;7.77;4.67;;;;;;;;;;5122176;28;20507;-56
2023/05/12 02:00:37;;;;;;;5.90;3.53;;;15.70;97.00;;;;;;5121982;28;20939;-56
2023/05/12 02:03:04;;;;;;;5.23;3.30;;;;;;;;;;5122311;28;20517;-54
2023/05/12 02:05:31;;;;;;;6.73;3.77;;;;;;;;;;5122343;28;20436;-53
2023/05/12 02:07:58;;;;;;;5.07;2.80;;;;;;;;;;5121776;28;20543;-56
2023/05/12 02:10:26;;;;;;;8.00;4.30;;;;;;;;;;5122440;28;20905;-53
2023/05/12 02:12:53;;;;;;;4.03;3.57;;;;;;;;;;5135806;28;20444;-55
2023/05/12 02:15:20;;;;;;;7.30;4.10;;;;;;;;;;5125388;28;20516;-57
2023/05/12 02:17:53;;;;;;;7.43;4.30;;;15.50;98.20;;;;;;5125158;28;20521;-56
2023/05/12 02:20:20;;;;;;;6.33;3.80;;;;;;;;;;5135638;28;20417;-56
2023/05/12 02:22:47;;;;;;;4.23;3.77;;;;;;;;;;5130379;28;20495;-57
2023/05/12 02:25:14;;;;;;;4.77;3.27;;;;;;;;;;5122734;28;20965;-55
2023/05/12 02:27:43;;;;;;;4.97;3.80;;;;;;;;;;5122743;28;20932;-56
2023/05/12 02:30:10;;;;;;;4.73;3.00;;;;;;;;;;5122823;28;20551;-56
2023/05/12 02:32:38;;;;;;;4.50;3.40;;;;;;;;;;5122684;28;20480;-56
2023/05/12 02:35:08;;;;;;;4.70;3.67;;;15.20;99.60;;;;;;5123465;28;20484;-56
2023/05/12 02:37:35;;;;;;;8.37;4.00;;;;;;;;;;5123234;28;20468;-56
2023/05/12 02:40:02;;;;;;;4.33;3.40;;;;;;;;;;5122770;28;20532;-56
2023/05/12 02:42:34;;;;;;;4.10;3.10;;;;;;;;;;5132309;28;20440;-54
2023/05/12 02:45:01;;;;;;;6.77;4.80;;;;;;;;;;5123298;28;20510;-53
2023/05/12 02:47:31;;;;;;;5.27;3.57;;;;;;;;;;5123041;28;20444;-55
2023/05/12 02:49:58;;;;;;;6.97;4.30;;;;;;;;;;5122329;28;20484;-57
2023/05/12 02:52:27;;;;;;;5.40;3.70;;;15.20;99.90;;;;;;5129904;28;20452;-54
2023/05/12 02:54:54;;;;;;;5.77;3.43;;;;;;;;;;5133882;28;20940;-57
2023/05/12 02:57:22;;;;;;;9.50;4.30;;;;;;;;;;5123555;28;20537;-56
2023/05/12 02:59:49;;;;;;;5.90;4.10;;;;;;;;;;5122249;28;20451;-54
2023/05/12 03:02:16;;;;;;;5.77;3.20;;;;;;;;;;5121942;28;20483;-58
2023/05/12 03:04:43;;;;;;;6.40;5.10;;;;;;;;;;5119171;28;20494;-55
2023/05/12 03:07:10;;;;;;;7.00;3.90;;;;;;;;;;5118697;28;20468;-54
2023/05/12 03:09:38;;;;;;;4.97;3.87;;;14.60;99.90;;;;;;5118519;28;20548;-54
2023/05/12 03:12:06;;;;;;;6.07;3.60;;;14.60;99.90;;;;;;5118108;28;20541;-55
2023/05/12 03:14:33;;;;;;;5.37;3.93;;;;;;;;;;5124008;28;20512;-57
2023/05/12 03:17:00;;;;;;;12.27;3.70;;;;;;;;;;5134800;28;20499;-55
2023/05/12 03:19:28;;;;;;;9.90;3.90;;;;;;;;;;5127307;28;20512;-56
2023/05/12 03:21:55;;;;;;;5.43;3.83;;;;;;;;;;5123037;28;20460;-56
2023/05/12 03:24:22;;;;;;;4.13;3.73;;;;;;;;;;5122430;28;20540;-56
2023/05/12 03:26:50;;;;;;;5.90;4.27;;;14.40;99.90;;;;;;5123003;28;20516;-55
2023/05/12 03:29:17;;;;;;;6.60;3.67;;;;;;;;;;5122846;28;20527;-57
2023/05/12 03:31:44;;;;;;;4.80;3.27;;;;;;;;;;5122947;28;20504;-55
2023/05/12 03:34:12;;;;;;;5.80;3.80;;;;;;;;;;5123236;28;20452;-56
2023/05/12 03:36:39;;;;;;;13.80;4.20;;;;;;;;;;5122211;28;20595;-54
2023/05/12 03:39:07;;;;;;;6.87;4.43;;;;;;;;;;5123093;28;20436;-57
2023/05/12 03:41:35;;;;;;;7.00;4.47;;;;;;;;;;5123002;28;20451;-58
2023/05/12 03:44:04;;;;;;;7.10;3.90;;;14.20;99.90;;;;;;5122836;28;20456;-55
2023/05/12 03:46:31;;;;;;;5.63;4.23;;;;;;;;;;5122758;28;20480;-56
2023/05/12 03:49:00;;;;;;;4.47;4.07;;;14.00;99.90;;;;;;5122850;28;20455;-52
2023/05/12 03:51:27;;;;;;;13.87;4.27;;;;;;;;;;5122238;28;20525;-55
2023/05/12 03:53:55;;;;;;;9.50;4.20;;;;;;;;;;5122545;28;20468;-55
2023/05/12 03:56:22;;;;;;;5.70;4.17;;;;;;;;;;5123191;28;20464;-52
2023/05/12 03:58:49;;;;;;;5.10;4.20;;;;;;;;;;5122536;28;20456;-56
2023/05/12 04:01:17;;;;;;;5.87;3.97;;;14.00;99.90;;;;;;5122022;28;20472;-53
2023/05/12 04:03:44;;;;;;;8.83;4.53;;;;;;;;;;5122532;28;20491;-51
2023/05/12 04:06:12;;;;;;;8.53;4.90;;;;;;;;;;5122319;28;20445;-57
2023/05/12 04:08:39;;;;;;;12.20;5.03;;;;;;;;;;5122387;28;20531;-51
2023/05/12 04:11:06;;;;;;;5.80;4.30;;;;;;;;;;5123431;28;20488;-55
2023/05/12 04:13:33;;;;;;;11.70;3.70;;;;;;;;;;5123440;28;20477;-56
2023/05/12 04:16:01;;;;;;;6.70;3.87;;;;;;;;;;5123887;28;20499;-53
2023/05/12 04:18:29;;;;;;;5.53;3.63;;;13.90;99.90;;;;;;5123972;28;20476;-56
2023/05/12 04:20:56;;;;;;;6.33;4.50;;;;;;;;;;5123891;28;20447;-58
2023/05/12 04:23:24;;;;;;;8.00;3.90;;;;;;;;;;5123641;28;20923;-56
2023/05/12 04:25:51;;;;;;;14.93;4.10;;;;;;;;;;5125997;28;20520;-55
2023/05/12 04:28:18;;;;;;;4.57;3.47;;;;;;;;;;5127032;28;20523;-57
2023/05/12 04:30:45;;;;;;;6.50;4.53;;;;;;;;;;5123371;28;20516;-57
2023/05/12 04:33:12;;;;;;;9.70;4.83;;;;;;;;;;5123322;28;20444;-57
2023/05/12 04:35:41;;;;;;;7.27;4.50;;;14.00;99.90;;;;;;5122977;28;20487;-57
2023/05/12 04:38:08;;;;;;;7.43;3.50;;;;;;;;;;5122414;28;20464;-55
2023/05/12 04:40:35;;;;;;;4.07;3.77;;;;;;;;;;5122665;28;20440;-56
2023/05/12 04:43:02;;;;;;;5.90;4.30;;;;;;;;;;5120206;28;20547;-56
2023/05/12 04:45:29;;;;;;;4.93;4.00;;;;;;;;;;5117785;28;20532;-56
2023/05/12 04:47:56;;;;;;;4.90;4.30;;;;;;;;;;5116872;28;20522;-54
2023/05/12 04:50:23;;;;;;;9.17;3.27;;;;;;;;;;5126445;28;20503;-56
2023/05/12 04:52:52;;;;;;;11.07;4.40;;;14.30;99.90;;;;;;5120172;28;20472;-54
2023/05/12 04:55:19;;;;;;;6.97;4.67;;;;;;;;;;5117425;28;20833;-53
2023/05/12 04:57:46;;;;;;;4.20;3.30;;;;;;;;;;5117126;28;20486;-56
2023/05/12 05:00:14;;;;;;;5.60;4.00;;;14.40;99.90;;;;;;5117653;28;20523;-58
2023/05/12 05:02:41;;;;;;;6.30;4.20;;;;;;;;;;5117311;28;20448;-55
2023/05/12 05:05:09;;;;;;;5.10;4.13;;;14.50;99.90;;;;;;5128949;28;20472;-56
2023/05/12 05:07:36;;;;;;;6.97;4.50;;;;;;;;;;5124451;28;20944;-54
2023/05/12 05:10:05;;;;;;;4.60;3.90;;;14.90;99.90;;;;;;5121923;28;20556;-57
2023/05/12 05:12:32;;;;;;;9.80;4.80;;;;;;;;;;5123896;28;20460;-57
2023/05/12 05:14:59;;;;;;;5.93;3.60;;;;;;;;;;5121763;28;20543;-51
2023/05/12 05:17:27;;;;;;;8.97;5.47;;;;;;;;;;5130184;28;20492;-53
2023/05/12 05:19:54;;;;;;;15.53;4.90;;;;;;;;;;5131118;28;20499;-55
2023/05/12 05:22:21;;;;;;;6.10;4.40;;;;;;;;;;5124989;28;20452;-56
2023/05/12 05:24:48;;;;;;;7.10;5.00;;;;;;;;;;5124562;28;20464;-55
2023/05/12 05:27:16;;;;;;;9.87;4.00;;;15.30;99.90;;;;;;5125045;28;20538;-54
2023/05/12 05:29:43;;;;;;;8.50;5.43;;;;;;;;;;5124914;28;20448;-55
2023/05/12 05:32:11;;;;;;;8.00;6.20;;;;;;;;;;5124781;28;21017;-53
2023/05/12 05:34:38;;;;;;;4.80;3.43;;;;;;;;;;5124442;28;20459;-57
2023/05/12 05:37:05;;;;;;;8.90;4.20;;;;;;;;;;5123956;28;20464;-57
2023/05/12 05:39:32;;;;;;;4.70;3.80;;;;;;;;;;5124362;28;20562;-55
2023/05/12 05:41:59;;;;;;;9.03;5.10;;;;;;;;;;5124528;28;20444;-53
2023/05/12 05:44:27;;;;;;;6.37;4.73;;;15.80;99.90;;;;;;5124388;28;20504;-56
2023/05/12 05:46:55;;;;;;;6.20;4.27;;;;;;;;;;5124070;28;20529;-56
2023/05/12 05:49:22;;;;;;;8.50;4.20;;;;;;;;;;5124463;28;21173;-56
2023/05/12 05:51:49;;;;;;;6.27;3.47;;;;;;;;;;5123783;28;20471;-54
2023/05/12 05:54:16;;;;;;;5.70;3.47;;;;;;;;;;5130152;28;20436;-55
2023/05/12 05:56:43;;;;;;;15.27;6.00;;;;;;;;;;5133696;28;20488;-54
2023/05/12 05:59:13;;;;;;;7.83;3.90;;;;;;;;;;5123134;28;20508;-55
2023/05/12 06:01:41;;;;;;;7.63;4.70;;;16.20;99.90;;;;;;5123397;28;20552;-57
2023/05/12 06:04:08;;;;;;;5.67;4.20;;;;;;;;;;5123106;28;20948;-57
2023/05/12 06:06:35;;;;;;;11.00;5.27;;;;;;;;;;5125048;28;20500;-56
2023/05/12 06:09:02;;;;;;;8.53;4.30;;;;;;;;;;5133057;28;20500;-55
2023/05/12 06:11:29;;;;;;;8.10;4.40;;;;;;;;;;5122430;28;20545;-57
2023/05/12 06:13:57;;;;;;;6.90;5.23;;;;;;;;;;5122965;28;20496;-55
2023/05/12 06:16:24;;;;;;;7.23;5.20;;;;;;;;;;5123953;28;20877;-54
2023/05/12 06:18:52;;;;;;;5.17;3.70;;;16.10;99.90;;;;;;5123090;28;20916;-56
2023/05/12 06:21:19;;;;;;;5.50;4.90;;;;;;;;;;5113514;28;20430;-56
2023/05/12 06:23:46;;;;;;;6.60;4.10;;;;;;;;;;5112996;28;20472;-56
2023/05/12 06:26:13;;;;;;;5.13;4.07;;;;;;;;;;5108418;28;20544;-57
2023/05/12 06:28:40;;;;;;;8.80;3.37;;;;;;;;;;5110926;28;20448;-56
2023/05/12 06:31:08;;;;;;;7.83;4.93;;;;;;;;;;5118649;28;20521;-55
2023/05/12 06:33:35;;;;;;;8.23;4.20;;;;;;;;;;5118161;28;20500;-54
2023/05/12 06:36:04;;;;;;;5.47;4.27;;;16.80;99.90;;;;;;5106899;28;20455;-56
2023/05/12 06:38:31;;;;;;;6.13;3.40;;;;;;;;;;5118173;28;20468;-58
2023/05/12 06:40:58;;;;;;;9.67;4.53;;;;;;;;;;5121643;28;20751;-54
2023/05/12 06:43:26;;;;;;;13.20;4.67;;;;;;;;;;5120992;28;20989;-55
2023/05/12 06:45:55;;;;;;;11.80;4.50;;;17.30;99.90;;;;;;5120373;28;20492;-55
2023/05/12 06:48:23;;;;;;;5.57;3.80;;;;;;;;;;5123320;28;20543;-53
2023/05/12 06:50:50;;;;;;;8.20;4.73;;;;;;;;;;5123248;28;20440;-54
2023/05/12 06:53:18;;;;;;;4.67;4.13;;;17.10;99.90;;;;;;5121464;28;20556;-54
2023/05/12 06:55:45;;;;;;;9.83;4.23;;;;;;;;;;5120519;28;20536;-56
2023/05/12 06:58:13;;;;;;;6.60;4.63;;;;;;;;;;5120038;28;20480;-55
2023/05/12 07:00:40;;;;;;;6.70;4.10;;;;;;;;;;5120639;28;20543;-54
2023/05/12 07:03:08;;;;;;;14.47;7.40;;;;;;;;;;5121904;28;20508;-50
2023/05/12 07:05:36;;;;;;;22.07;11.57;;;;;;;;;;5121076;28;20865;-56
2023/05/12 07:08:03;;;;;;;6.30;4.13;;;;;;;;;;5120438;28;20445;-55
2023/05/12 07:10:32;;;;;;;6.67;4.93;;;18.00;99.90;;;;;;5124919;28;20494;-49
2023/05/12 07:12:59;;;;;;;7.80;3.97;;;;;;;;;;5123498;28;20522;-47
2023/05/12 07:15:26;;;;;;;6.17;4.30;;;;;;;;;;5122910;28;20468;-52
2023/05/12 07:17:54;;;;;;;9.63;4.50;;;;;;;;;;5113059;28;20482;-50
2023/05/12 07:20:21;;;;;;;13.53;3.80;;;;;;;;;;5100802;28;20449;-56
2023/05/12 07:22:53;;;;;;;4.87;3.03;;;24.00;83.40;;;;;;5097523;28;20537;-52
2023/05/12 07:25:20;;;;;;;10.57;4.30;;;;;;;;;;5114819;28;20765;-51
2023/05/12 07:27:49;;;;;;;4.70;4.30;;;25.20;71.80;;;;;;5116864;28;20457;-54
2023/05/12 07:30:16;;;;;;;5.73;4.47;;;;;;;;;;5115676;28;20885;-57
2023/05/12 07:32:43;;;;;;;7.03;3.80;;;;;;;;;;5096773;28;20535;-56
2023/05/12 07:35:11;;;;;;;3.97;3.57;;;;;;;;;;5096705;28;20537;-55
2023/05/12 07:37:38;;;;;;;6.83;4.53;;;24.30;99.90;;;;;;5096958;28;20477;-57
2023/05/12 07:40:06;;;;;;;9.00;5.60;;;25.30;64.70;;;;;;5101123;28;20712;-57
2023/05/12 07:42:33;;;;;;;5.40;4.20;;;;;;;;;;5108607;28;20426;-51
2023/05/12 07:45:01;;;;;;;5.53;4.17;;;28.30;90.70;;;;;;5117749;28;20504;-57
2023/05/12 07:47:28;;;;;;;4.83;4.40;;;29.70;92.50;;;;;;5103540;28;20498;-56
2023/05/12 07:49:55;;;;;;;8.23;4.70;;;;;;;;;;5098744;28;20452;-56
2023/05/12 07:52:23;;;;;;;5.03;4.43;;;32.40;79.60;;;;;;5108409;28;20485;-57
2023/05/12 07:54:50;;;;;;;5.00;4.00;;;;;;;;;;5098780;28;20511;-57
2023/05/12 07:57:17;;;;;;;4.00;3.63;;;34.10;78.80;;;;;;5096744;28;20560;-55
2023/05/12 07:59:44;;;;;;;4.30;3.70;;;;;;;;;;5115528;28;20885;-54
2023/05/12 08:02:12;;;;;;;6.07;4.13;;;35.60;46.50;;;;;;5115980;28;20472;-54
2023/05/12 08:04:39;;;;;;;6.20;4.33;;;35.50;47.50;;;;;;5112467;28;20442;-58
2023/05/12 08:07:06;;;;;;;6.50;3.60;;;;;;;;;;5095674;28;20476;-56
2023/05/12 08:09:33;;;;;;;7.10;3.80;;;;;;;;;;5095486;28;20549;-55
2023/05/12 08:12:01;;;;;;;8.27;4.93;;;;;;;;;;5106622;28;20507;-57
2023/05/12 08:14:28;;;;;;;4.13;3.10;;;;;;;;;;5105755;28;20476;-59
2023/05/12 08:16:55;;;;;;;5.20;3.40;;;;;;;;;;5095264;28;20544;-59
2023/05/12 08:19:23;;;;;;;4.53;3.80;;;36.30;71.50;;;;;;5113187;28;20505;-54
2023/05/12 08:21:51;;;;;;;5.03;3.80;;;35.90;71.00;;;;;;5117593;28;20453;-57
2023/05/12 08:24:18;;;;;;;5.60;3.60;;;;;;;;;;5104954;28;20445;-62
2023/05/12 08:26:45;;;;;;;6.00;3.90;;;35.90;69.50;;;;;;5108211;28;20519;-56
2023/05/12 08:29:12;;;;;;;13.67;3.93;;;;;;;;;;5106123;28;20473;-59
2023/05/12 08:31:39;;;;;;;3.23;2.80;;;;;;;;;;5117858;28;20525;-58
2023/05/12 08:34:06;;;;;;;3.40;3.10;;;;;;;;;;5114715;28;20449;-59
2023/05/12 08:36:34;;;;;;;4.70;3.40;;;35.20;37.50;;;;;;5102919;28;20445;-57
2023/05/12 08:39:02;;;;;;;3.40;2.87;;;;;;;;;;5104452;28;20816;-57
2023/05/12 08:41:37;;;;;;;7.03;4.50;;;35.20;55.60;;;;;;5114155;28;20447;-54
2023/05/12 08:44:05;;;;;;;5.27;3.60;;;35.20;37.30;;;;;;5101894;28;20534;-56
2023/05/12 08:46:32;;;;;;;5.33;3.90;;;;;;;;;;5112656;28;20452;-57
2023/05/12 08:49:01;;;;;;;3.53;2.90;;;35.50;36.10;;;;;;5121853;28;20854;-57
2023/05/12 08:51:31;;;;;;;5.73;3.70;;;35.30;61.00;;;;;;5117400;28;20461;-58
2023/05/12 08:53:59;;;;;;;4.90;2.83;;;35.00;36.40;;;;;;5121589;28;20785;-58
2023/05/12 08:56:27;;;;;;;3.87;3.17;;;;;;;;;;5119141;28;20513;-56
2023/05/12 08:58:55;;;;;;;7.80;3.53;;;35.40;35.40;;;;;;5120817;28;20460;-57
2023/05/12 09:01:22;;;;;;;5.00;3.73;;;35.60;33.70;;;;;;5122348;28;20444;-55
2023/05/12 09:03:51;;;;;;;4.83;3.97;;;35.50;34.70;;;;;;5122538;28;20531;-58
2023/05/12 09:06:19;;;;;;;4.40;3.77;;;;;;;;;;5122340;28;20945;-55
2023/05/12 09:08:46;;;;;;;5.27;4.03;;;;;;;;;;5122460;28;20444;-58
2023/05/12 09:11:16;;;;;;;5.77;3.40;;;35.40;35.30;;;;;;5122599;28;20568;-58
2023/05/12 09:13:52;;;;;;;8.70;3.97;;;35.20;59.50;;;;;;5122077;28;20537;-59
2023/05/12 09:16:22;;;;;;;5.60;3.40;;;35.20;34.40;;;;;;5122413;28;20519;-54
2023/05/12 09:18:51;;;;;;;3.83;3.13;;;35.30;63.50;;;;;;5122328;28;20459;-59
2023/05/12 09:21:19;;;;;;;3.43;2.80;;;35.40;65.50;;;;;;5122012;28;20444;-58
2023/05/12 09:23:53;;;;;;;3.83;3.00;;;35.00;29.40;;;;;;5121894;28;20472;-58
2023/05/12 09:26:23;;;;;;;3.07;2.87;;;34.90;58.40;;;;;;5122312;28;20497;-58
2023/05/12 09:28:50;;;;;;;3.67;3.13;;;34.90;59.40;;;;;;5122861;28;20551;-58
2023/05/12 09:31:18;;;;;;;6.33;3.37;;;34.60;58.40;;;;;;5124225;28;20449;-56
2023/05/12 09:33:46;;;;;;;4.60;3.40;;;;;;;;;;5121348;28;20587;-57
2023/05/12 09:36:16;;;;;;;4.47;3.30;;;34.80;62.20;;;;;;5124531;28;20501;-59
2023/05/12 09:38:43;;;;;;;3.17;2.87;;;34.80;67.30;;;;;;5123239;28;20515;-59
2023/05/12 09:41:10;;;;;;;4.03;3.27;;;34.40;68.50;;;;;;5122547;28;20437;-55
2023/05/12 09:43:45;;;;;;;6.30;3.53;;;34.40;34.80;;;;;;5122333;28;20539;-54
2023/05/12 09:46:13;;;;;;;7.17;3.83;;;;;;;;;;5122818;28;20445;-58
2023/05/12 09:48:40;;;;;;;3.77;3.40;;;34.10;59.50;;;;;;5120907;28;20456;-57
2023/05/12 09:51:10;;;;;;;6.17;3.67;;;34.30;35.20;;;;;;5119892;28;20564;-57
2023/05/12 09:53:43;;;;;;;3.53;3.23;;;34.40;59.30;;;;;;5107022;28;20477;-59
2023/05/12 09:56:12;;;;;;;4.37;2.80;;;34.30;59.60;;;;;;5107893;28;20451;-54
2023/05/12 09:58:43;;;;;;;3.23;2.93;;;34.40;35.50;;;;;;5103616;28;20485;-56
2023/05/12 10:01:12;;;;;;;4.03;3.70;;;34.30;64.10;;;;;;5104763;28;20457;-57
2023/05/12 10:03:41;;;;;;;4.90;3.07;;;34.20;59.10;;;;;;5111080;28;20564;-58
2023/05/12 10:06:11;;;;;;;4.90;3.50;;;33.60;69.70;;;;;;5109770;28;20473;-60
2023/05/12 10:08:43;;;;;;;4.13;3.07;;;33.40;64.00;;;;;;5107474;28;20488;-59
2023/05/12 10:11:11;;;;;;;3.57;3.27;;;33.40;34.20;;;;;;5103395;28;20522;-58
2023/05/12 10:13:40;;;;;;;4.80;2.80;;;33.50;59.30;;;;;;5107567;28;20508;-55
2023/05/12 10:16:07;;;;;;;4.50;3.40;;;33.50;70.50;;;;;;5107748;28;20545;-58
2023/05/12 10:18:35;;;;;;;4.30;3.13;;;;;;;;;;5110392;28;20480;-58
2023/05/12 10:21:03;;;;;;;9.50;3.50;;;32.90;36.20;;;;;;5119228;28;20464;-56
2023/05/12 10:23:31;;;;;;;3.20;2.87;;;32.10;36.20;;;;;;5120673;28;20548;-57
2023/05/12 10:26:00;;;;;;;4.30;3.57;;;;;;;;;;5120559;28;20496;-57
2023/05/12 10:28:28;;;;;;;4.43;3.13;;;31.90;73.30;;;;;;5120362;28;20532;-56
2023/05/12 10:30:57;;;;;;;3.40;3.10;;;31.60;72.20;;;;;;5120694;28;20553;-58
2023/05/12 10:33:25;;;;;;;3.70;2.90;;;31.30;65.20;;;;;;5119731;28;20519;-59
2023/05/12 10:35:53;;;;;;;3.80;3.50;;;31.30;75.40;;;;;;5120090;28;20456;-60
2023/05/12 10:38:20;;;;;;;5.17;3.50;;;;;;;;;;5120811;28;20452;-56
2023/05/12 10:40:52;;;;;;;8.43;3.40;;;31.00;72.10;;;;;;5120577;28;20532;-59
2023/05/12 10:43:23;;;;;;;4.17;3.07;;;30.80;41.30;;;;;;5120761;28;20449;-57
2023/05/12 10:46:14;;;;;;;5.03;3.57;;;30.70;42.00;;;;;;5120195;28;20431;-59
2023/05/12 10:48:52;;;;;;;5.80;3.30;;;30.40;49.30;;;;;;5099601;28;20426;-60
2023/05/12 10:51:21;;;;;;;4.50;3.90;;;29.70;43.40;;;;;;5099684;28;20441;-59
2023/05/12 10:53:51;;;;;;;4.93;3.23;;;29.40;70.30;;;;;;5099813;28;20461;-59
2023/05/12 10:56:23;;;;;;;5.27;4.77;;;29.20;43.60;;;;;;5099814;28;20461;-57
2023/05/12 10:59:12;;;;;;;6.87;3.77;;;28.40;37.60;;;;;;5112909;28;20464;-58
2023/05/12 11:01:41;;;;;;;7.43;3.73;;;29.10;41.30;;;;;;5119661;28;20440;-60
2023/05/12 11:04:16;;;;;;;5.07;3.83;;;29.10;39.60;;;;;;5120630;28;20436;-58
2023/05/12 11:06:44;;;;;;;3.67;3.30;;;29.00;44.60;;;;;;5119580;28;20950;-57
2023/05/12 11:09:12;;;;;;;11.90;3.40;;;29.10;44.50;;;;;;5118982;28;20444;-59
2023/05/12 11:11:39;;;;;;;4.10;3.43;;;;;;;;;;5119290;28;20513;-56
2023/05/12 11:14:07;;;;;;;3.80;3.47;;;27.90;44.40;;;;;;5119462;28;20495;-57
2023/05/12 11:16:34;;;;;;;4.40;3.30;;;;;;;;;;5118794;28;20777;-57
2023/05/12 11:19:03;;;;;;;4.63;3.53;;;27.70;47.50;;;;;;5119328;28;20483;-57
2023/05/12 11:21:31;;;;;;;4.20;2.83;;;27.40;45.80;;;;;;5118192;28;20445;-54
2023/05/12 11:23:59;;;;;;;10.57;3.37;;;;;;;;;;5119554;28;20492;-59
2023/05/12 11:26:26;;;;;;;6.60;3.73;;;;;;;;;;5119343;28;20778;-57
2023/05/12 11:28:53;;;;;;;4.43;3.57;;;;;;;;;;5119571;28;20471;-59
2023/05/12 11:31:21;;;;;;;4.97;3.47;;;27.20;45.30;;;;;;5116063;28;20547;-56
2023/05/12 11:33:49;;;;;;;4.33;4.03;;;;;;;;;;5116736;28;20520;-56
2023/05/12 11:36:20;;;;;;;4.87;2.73;;;27.00;47.40;;;;;;5116544;28;20448;-55
2023/05/12 11:38:50;;;;;;;4.17;3.17;;;;;;;;;;5116997;28;20468;-57
2023/05/12 11:41:23;;;;;;;6.57;3.77;;;27.00;72.00;;;;;;5116324;28;20456;-56
2023/05/12 11:43:50;;;;;;;3.13;2.83;;;;;;;;;;5116125;28;20476;-55
2023/05/12 11:46:24;;;;;;;3.53;3.23;;;26.40;86.10;;;;;;5116442;28;20853;-53
2023/05/12 11:48:56;;;;;;;4.53;3.30;;;;;;;;;;5116223;28;20485;-57
2023/05/12 11:51:25;;;;;;;5.43;3.60;;;;;;;;;;5116114;28;20440;-55
2023/05/12 11:53:52;;;;;;;7.57;3.60;;;;;;;;;;5116144;28;20476;-53
2023/05/12 11:56:20;;;;;;;7.20;3.40;;;;;;;;;;5107099;28;20457;-57
2023/05/12 11:58:55;;;;;;;4.00;3.10;;;26.10;42.00;;;;;;5108337;28;20448;-54
2023/05/12 12:01:23;;;;;;;5.70;4.03;;;;;;;;;;5116729;28;20459;-54
2023/05/12 12:03:53;;;;;;;6.30;5.30;;;;;;;;;;5116773;28;20555;-54
2023/05/12 12:06:21;;;;;;;3.93;3.23;;;26.00;46.50;;;;;;5116575;28;20544;-54
2023/05/12 12:08:54;;;;;;;3.40;3.10;;;25.90;77.20;;;;;;5112131;28;20472;-54
2023/05/12 12:11:25;;;;;;;4.70;3.20;;;25.80;48.30;;;;;;5107683;28;20487;-55
2023/05/12 12:13:56;;;;;;;4.13;2.87;;;25.70;45.50;;;;;;5113300;28;20555;-57
2023/05/12 12:16:24;;;;;;;5.70;4.10;;;;;;;;;;5112554;28;20469;-59
2023/05/12 12:18:51;;;;;;;5.70;4.53;;;;;;;;;;5111980;28;20456;-58
2023/05/12 12:21:18;;;;;;;8.23;3.30;;;;;;;;;;5111772;28;20866;-56
2023/05/12 12:23:46;;;;;;;3.57;2.93;;;;;;;;;;5114585;28;20540;-58
2023/05/12 12:26:15;;;;;;;14.73;8.43;;;25.90;47.20;;;;;;5107080;28;20472;-55
2023/05/12 12:28:42;;;;;;;4.50;3.40;;;25.80;77.40;;;;;;5110144;28;20834;-57
2023/05/12 12:31:09;;;;;;;4.10;2.97;;;;;;;;;;5115103;28;20464;-54
2023/05/12 12:33:37;;;;;;;7.20;3.67;;;;;;;;;;5096103;28;20481;-59
2023/05/12 12:36:05;;;;;;;6.70;4.10;;;25.70;48.80;;;;;;5104713;28;21011;-57
2023/05/12 12:38:32;;;;;;;3.20;2.70;;;;;;;;;;5112027;28;20450;-59
2023/05/12 12:40:59;;;;;;;5.87;3.60;;;;;;;;;;5115561;28;20500;-56
2023/05/12 12:43:28;;;;;;;8.33;3.07;;;25.10;49.50;;;;;;5115929;28;20448;-57
2023/05/12 12:45:55;;;;;;;2.67;2.47;;;;;;;;;;5115684;28;20527;-59
2023/05/12 12:48:22;;;;;;;4.50;2.93;;;;;;;;;;5116261;28;20741;-59
2023/05/12 12:50:49;;;;;;;5.63;3.40;;;;;;;;;;5118549;28;20558;-58
2023/05/12 12:53:16;;;;;;;3.63;3.30;;;;;;;;;;5119348;28;20519;-59
2023/05/12 12:55:43;;;;;;;7.93;4.07;;;;;;;;;;5113496;28;20467;-57
2023/05/12 12:58:12;;;;;;;4.17;3.80;;;;;;;;;;5110658;28;20486;-56
2023/05/12 13:00:40;;;;;;;10.23;3.70;;;25.40;50.30;;;;;;5096410;28;20526;-53
2023/05/12 13:03:07;;;;;;;3.63;3.00;;;;;;;;;;5103341;28;20465;-51
2023/05/12 13:05:35;;;;;;;2.67;2.47;;;;;;;;;;5107854;28;20448;-59
2023/05/12 13:08:02;;;;;;;3.43;3.00;;;;;;;;;;5105455;28;20460;-54
2023/05/12 13:10:29;;;;;;;3.87;3.40;;;;;;;;;;5106092;28;20456;-54
2023/05/12 13:12:57;;;;;;;3.87;2.53;;;;;;;;;;5098426;28;20560;-54
2023/05/12 13:15:24;;;;;;;3.60;3.13;;;;;;;;;;5114508;28;21039;-57
2023/05/12 13:17:52;;;;;;;3.47;2.80;;;25.60;49.00;;;;;;5108403;28;20500;-51
2023/05/12 13:20:19;;;;;;;6.17;3.50;;;;;;;;;;5111959;28;20468;-56
2023/05/12 13:22:47;;;;;;;3.60;3.30;;;;;;;;;;5113228;28;20481;-54
2023/05/12 13:25:14;;;;;;;6.60;3.30;;;;;;;;;;5111506;28;20468;-56
2023/05/12 13:27:41;;;;;;;5.20;3.30;;;;;;;;;;5117583;28;20452;-55
2023/05/12 13:30:09;;;;;;;5.07;3.40;;;26.30;75.90;;;;;;5114757;28;20499;-57
2023/05/12 13:32:37;;;;;;;3.97;3.00;;;25.90;47.30;;;;;;5113093;28;20448;-57
2023/05/12 13:35:06;;;;;;;2.90;2.60;;;25.70;47.80;;;;;;5102468;28;20586;-58
2023/05/12 13:37:33;;;;;;;3.07;2.77;;;;;;;;;;5109410;28;20472;-57
2023/05/12 13:40:00;;;;;;;4.90;3.63;;;;;;;;;;5123054;28;20490;-58
2023/05/12 13:42:27;;;;;;;3.27;2.97;;;;;;;;;;5122969;28;20504;-52
2023/05/12 13:44:54;;;;;;;2.93;2.53;;;;;;;;;;5119126;28;20461;-55
2023/05/12 13:47:24;;;;;;;3.47;2.97;;;25.40;47.80;;;;;;5117801;28;20516;-55
2023/05/12 13:49:51;;;;;;;3.47;2.40;;;;;;;;;;5112683;28;20518;-57
2023/05/12 13:52:20;;;;;;;3.13;2.57;;;25.40;49.00;;;;;;5100769;28;21001;-55
2023/05/12 13:54:47;;;;;;;4.43;3.40;;;;;;;;;;5115699;28;20509;-51
2023/05/12 13:57:14;;;;;;;4.00;2.60;;;;;;;;;;5127750;28;20450;-53
2023/05/12 13:59:41;;;;;;;4.00;3.20;;;;;;;;;;5117990;28;20444;-56